»·PEaware :: N7375Q 67L-L77

N7375Q :: 67L-L77

FLIGHT INFORMATION

Flight Status: Arrived
Operator: Privately registered:
United States
More flights under this callsign
Pilot: Ion I. (24133)
Aircraft: SOCATA TBM-900
(TBM9)
More flights by this aircraft type
Origin: 67L Mesquite
United States
Destination: L77 Chiriaco Summit
United States
More flights between these airports :: More routes between these airports
Route: DIRECT
File this flight plan on PilotEdge
Remarks:
Altitude:
(Current/Filed)
16,500ft
Speed:
(Current/Filed)
250kts
Departed: 02-Aug-20 10:32 AM
Arrived: 02-Aug-20 11:27 AM
Distance/Time
Traveled:
207nm/0:55
Distance/Time
To Go:
Arrived

Flight Plot

Page will automatically refresh every two minutes.


Map Options




Map Legend


Flown Route
Filed Route
Departure Airport
Arrival Airport
Navaid (VOR, NDB)
Fix

Horizontal Profiles

Position Reports

Time Latitude Longitude Heading Altitude Ground
Speed
02-Aug-20 10:22 36.832683 -114.058131 119 1978ft 0kts
02-Aug-20 10:23 36.832683 -114.058131 119 1978ft 0kts
02-Aug-20 10:24 36.832683 -114.058131 119 1978ft 0kts
02-Aug-20 10:25 36.832523 -114.058047 202 1978ft 3kts
02-Aug-20 10:26 36.831087 -114.058261 208 1978ft 8kts
02-Aug-20 10:27 36.830901 -114.058401 29 1978ft 10kts
02-Aug-20 10:28 36.834379 -114.055947 30 1978ft 16kts
02-Aug-20 10:29 36.838556 -114.053036 29 1978ft 16kts
02-Aug-20 10:30 36.839443 -114.052189 122 1978ft 0kts
02-Aug-20 10:31 36.837622 -114.052748 210 1978ft 63kts
02-Aug-20 10:32 36.815499 -114.078943 249 3562ft 126kts
02-Aug-20 10:33 36.810913 -114.120261 266 6005ft 125kts
02-Aug-20 10:34 36.802654 -114.161728 246 8228ft 130kts
02-Aug-20 10:35 36.789548 -114.207211 247 10324ft 149kts
02-Aug-20 10:36 36.774773 -114.258358 248 12408ft 166kts
02-Aug-20 10:37 36.739595 -114.287885 197 14728ft 161kts
02-Aug-20 10:38 36.696394 -114.303415 196 16553ft 192kts
02-Aug-20 10:39 36.633952 -114.325566 196 16576ft 258kts
02-Aug-20 10:40 36.562184 -114.351038 196 16551ft 275kts
02-Aug-20 10:41 36.487935 -114.377338 196 16535ft 279kts
02-Aug-20 10:42 36.413326 -114.403705 196 16532ft 279kts
02-Aug-20 10:43 36.338620 -114.430053 197 16531ft 279kts
02-Aug-20 10:44 36.263954 -114.456340 197 16531ft 279kts
02-Aug-20 10:45 36.189309 -114.482563 197 16531ft 279kts
02-Aug-20 10:46 36.114646 -114.508738 197 16531ft 279kts
02-Aug-20 10:47 36.040079 -114.534829 197 16525ft 279kts
02-Aug-20 10:48 35.965520 -114.560848 197 16517ft 279kts
02-Aug-20 10:49 35.890461 -114.587010 197 16504ft 279kts
02-Aug-20 10:50 35.821462 -114.626938 214 16495ft 276kts
02-Aug-20 10:51 35.756810 -114.678977 213 16496ft 276kts
02-Aug-20 10:52 35.692583 -114.730492 213 16554ft 275kts
02-Aug-20 10:53 35.628344 -114.781903 213 16556ft 275kts
02-Aug-20 10:54 35.563892 -114.833370 213 16395ft 282kts
02-Aug-20 10:55 35.493363 -114.891437 226 13520ft 321kts
02-Aug-20 10:56 35.443603 -114.978307 217 10765ft 310kts
02-Aug-20 10:57 35.373126 -115.024430 207 9901ft 285kts
02-Aug-20 10:58 35.302104 -115.069142 207 8518ft 272kts
02-Aug-20 10:59 35.237487 -115.109757 207 8528ft 254kts
02-Aug-20 11:00 35.175035 -115.148941 207 8529ft 251kts
02-Aug-20 11:01 35.112076 -115.184911 199 8540ft 250kts
02-Aug-20 11:02 35.046731 -115.213802 200 8543ft 250kts
02-Aug-20 11:03 34.981016 -115.242836 200 8543ft 250kts
02-Aug-20 11:04 34.915641 -115.271664 200 8543ft 250kts
02-Aug-20 11:05 34.849865 -115.300618 200 8550ft 250kts
02-Aug-20 11:06 34.784235 -115.329466 200 8564ft 251kts
02-Aug-20 11:07 34.718320 -115.358377 200 8571ft 252kts
02-Aug-20 11:08 34.652238 -115.387315 200 8571ft 252kts
02-Aug-20 11:09 34.586091 -115.416230 200 8570ft 253kts
02-Aug-20 11:10 34.519936 -115.445102 200 8571ft 253kts
02-Aug-20 11:11 34.453624 -115.474001 200 8570ft 253kts
02-Aug-20 11:12 34.387186 -115.502896 200 8571ft 254kts
02-Aug-20 11:13 34.320358 -115.531021 193 8567ft 255kts
02-Aug-20 11:14 34.251251 -115.550065 194 8570ft 255kts
02-Aug-20 11:15 34.180316 -115.556269 183 8653ft 254kts
02-Aug-20 11:16 34.108411 -115.559142 183 8177ft 268kts
02-Aug-20 11:17 34.033112 -115.562682 183 7178ft 272kts
02-Aug-20 11:18 33.958120 -115.566554 183 6540ft 262kts
02-Aug-20 11:19 33.886366 -115.570056 183 6482ft 252kts
02-Aug-20 11:20 33.815121 -115.573713 183 5809ft 251kts
02-Aug-20 11:21 33.750857 -115.577192 183 4632ft 212kts
02-Aug-20 11:22 33.696777 -115.587362 228 3314ft 192kts
02-Aug-20 11:23 33.678153 -115.630203 254 2669ft 135kts
02-Aug-20 11:24 33.672895 -115.661430 257 2539ft 108kts
02-Aug-20 11:25 33.667495 -115.694069 255 1883ft 98kts
02-Aug-20 11:26 33.663956 -115.715576 258 1693ft 39kts
02-Aug-20 11:27 33.661882 -115.719518 112 1693ft 7kts
02-Aug-20 11:28 33.661888 -115.719200 281 1693ft 0kts
02-Aug-20 11:29 33.661888 -115.719200 281 1693ft 0kts
02-Aug-20 11:30 33.661888 -115.719200 281 1693ft 0kts
02-Aug-20 11:31 33.661888 -115.719200 281 1693ft 0kts
02-Aug-20 11:32 33.661888 -115.719200 281 1693ft 0kts
02-Aug-20 11:33 33.661888 -115.719200 281 1693ft 0kts
02-Aug-20 11:34 33.661888 -115.719200 281 1693ft 0kts
02-Aug-20 11:35 33.661888 -115.719200 281 1693ft 0kts
02-Aug-20 11:36 33.661888 -115.719200 281 1693ft 0kts

Navigation Log

Ident Type
Flight plan parsing failed, navigation log unavailable